Time;durP1;ratioP1;P1;durP2;ratioP2;P2;SDS_P1;SDS_P2;PMS_P1;PMS_P2;Temp;Humidity;BMP_temperature;BMP_pressure;BME280_temperature;BME280_humidity;BME280_pressure;Samples;Min_cycle;Max_cycle;Signal;HPM_P1;HPM_P2
2022/02/17 00:00:18;;;;;;;;;;;;;;;14.69;64.67;98778.19;1020670;29;716;-68
2022/02/17 00:01:09;;;;;;;;;;;;;;;14.68;64.85;98770.38;1020820;29;842;-67
2022/02/17 00:01:59;;;;;;;;;;;;;;;14.65;64.80;98770.72;1021382;29;733;-68
2022/02/17 00:02:50;;;;;;;;;;;;;;;14.64;64.94;98767.19;1021237;29;924;-68
2022/02/17 00:03:41;;;;;;;;;;;;;;;14.63;64.22;98773.56;1020821;29;791;-68
2022/02/17 00:04:31;;;;;;;;;;;;;;;14.64;64.72;98764.50;1022049;29;1057;-68
2022/02/17 00:05:21;;;;;;;;;;;;;;;14.64;64.92;98764.50;1021467;29;801;-68
2022/02/17 00:06:12;;;;;;;;;;;;;;;14.64;64.87;98780.59;1016284;29;693;-68
2022/02/17 00:07:02;;;;;;;;;;;;;;;14.65;64.47;98770.72;1017877;29;835;-67
2022/02/17 00:07:54;;;;;;;;;;;;;;;14.63;64.82;98762.84;1021586;29;818;-67
2022/02/17 00:08:45;;;;;;;;;;;;;;;14.64;64.30;98763.69;1021580;29;699;-67
2022/02/17 00:09:35;;;;;;;;;;;;;;;14.62;64.54;98771.06;1021608;29;832;-68
2022/02/17 00:10:26;;;;;;;;;;;;;;;14.62;64.86;98782.63;1022083;29;686;-68
2022/02/17 00:11:16;;;;;;;;;;;;;;;14.62;64.84;98774.56;1021562;29;1966;-68
2022/02/17 00:12:07;;;;;;;;;;;;;;;14.64;64.97;98777.91;1022128;29;674;-68
2022/02/17 00:12:57;;;;;;;;;;;;;;;14.63;64.36;98797.69;1022112;29;838;-68
2022/02/17 00:13:48;;;;;;;;;;;;;;;14.62;64.27;98777.25;1022101;29;749;-68
2022/02/17 00:14:38;;;;;;;;;;;;;;;14.62;64.66;98777.25;1021480;29;764;-68
2022/02/17 00:15:28;;;;;;;;;;;;;;;14.63;64.38;98783.44;1022132;29;730;-68
2022/02/17 00:16:20;;;;;;;;;;;;;;;14.61;64.72;98780.94;1022072;29;780;-69
2022/02/17 00:17:10;;;;;;;;;;;;;;;14.59;64.93;98782.97;1021368;29;1977;-68
2022/02/17 00:18:01;;;;;;;;;;;;;;;14.59;64.44;98780.28;1021381;29;718;-69
2022/02/17 00:18:51;;;;;;;;;;;;;;;14.59;64.33;98786.47;1021851;29;1839;-69
2022/02/17 00:19:41;;;;;;;;;;;;;;;14.61;64.61;98794.34;1021526;29;795;-69
2022/02/17 00:20:32;;;;;;;;;;;;;;;14.62;64.32;98795.19;1021369;29;687;-69
2022/02/17 00:21:22;;;;;;;;;;;;;;;14.63;64.56;98792.34;1022045;29;847;-69
2022/02/17 00:22:13;;;;;;;;;;;;;;;14.62;64.15;98777.25;1022072;29;804;-68
2022/02/17 00:23:03;;;;;;;;;;;;;;;14.62;64.60;98779.94;1021520;29;711;-68
2022/02/17 00:23:54;;;;;;;;;;;;;;;14.64;64.09;98777.91;1016258;29;766;-69
2022/02/17 00:24:44;;;;;;;;;;;;;;;14.62;64.08;98782.63;1013409;29;725;-69
2022/02/17 00:25:35;;;;;;;;;;;;;;;14.61;64.73;98786.31;1016606;29;786;-69
2022/02/17 00:26:25;;;;;;;;;;;;;;;14.61;64.35;98780.09;1021529;29;717;-69
2022/02/17 00:27:16;;;;;;;;;;;;;;;14.60;64.71;98773.91;1022025;29;794;-69
2022/02/17 00:28:06;;;;;;;;;;;;;;;14.61;64.26;98793.50;1022058;29;692;-68
2022/02/17 00:28:57;;;;;;;;;;;;;;;14.60;64.20;98773.91;1021530;29;722;-69
2022/02/17 00:29:47;;;;;;;;;;;;;;;14.62;64.62;98765.69;1021363;29;914;-68
2022/02/17 00:30:38;;;;;;;;;;;;;;;14.61;64.10;98767.53;1021989;29;782;-69
2022/02/17 00:31:28;;;;;;;;;;;;;;;14.63;64.53;98776.25;1022000;29;1944;-70
2022/02/17 00:32:18;;;;;;;;;;;;;;;14.63;64.22;98767.38;1021472;29;708;-69
2022/02/17 00:33:09;;;;;;;;;;;;;;;14.62;64.32;98779.94;1022036;29;790;-69
2022/02/17 00:33:59;;;;;;;;;;;;;;;14.63;64.22;98762.00;1021856;29;1353;-68
2022/02/17 00:34:50;;;;;;;;;;;;;;;14.62;64.21;98777.25;1021950;29;732;-68
2022/02/17 00:35:41;;;;;;;;;;;;;;;14.61;64.51;98767.53;1021399;29;830;-68
2022/02/17 00:36:31;;;;;;;;;;;;;;;14.59;64.34;98769.56;1016229;29;736;-68
2022/02/17 00:37:21;;;;;;;;;;;;;;;14.58;64.05;98775.94;1017716;29;777;-68
2022/02/17 00:38:12;;;;;;;;;;;;;;;14.58;64.72;98770.56;1017112;29;776;-68
2022/02/17 00:39:02;;;;;;;;;;;;;;;14.57;64.64;98767.06;1017847;29;732;-69
2022/02/17 00:39:53;;;;;;;;;;;;;;;14.58;64.74;98775.94;1021271;29;735;-69
2022/02/17 00:40:43;;;;;;;;;;;;;;;14.59;64.48;98780.28;1021780;29;1897;-68
2022/02/17 00:41:33;;;;;;;;;;;;;;;14.58;64.14;98782.13;1021605;29;735;-67
2022/02/17 00:42:24;;;;;;;;;;;;;;;14.57;64.82;98801.91;1021813;29;1826;-71
2022/02/17 00:43:15;;;;;;;;;;;;;;;14.56;64.63;98783.31;1021025;29;778;-71
2022/02/17 00:44:05;;;;;;;;;;;;;;;14.56;64.10;98772.59;1021883;29;790;-73
2022/02/17 00:44:55;;;;;;;;;;;;;;;14.56;64.17;98768.06;1021924;29;690;-72
2022/02/17 00:45:46;;;;;;;;;;;;;;;14.55;64.24;98785.16;1022109;29;752;-68
2022/02/17 00:46:36;;;;;;;;;;;;;;;14.54;64.25;98778.13;1022031;29;1098;-70
2022/02/17 00:47:27;;;;;;;;;;;;;;;14.55;64.63;98793.19;1020774;29;755;-70
2022/02/17 00:48:17;;;;;;;;;;;;;;;14.55;64.14;98790.50;1021880;29;834;-69
2022/02/17 00:49:07;;;;;;;;;;;;;;;14.56;64.98;98799.38;1021843;29;925;-71
2022/02/17 00:49:58;;;;;;;;;;;;;;;14.56;64.54;98802.06;1022099;29;713;-69
2022/02/17 00:50:48;;;;;;;;;;;;;;;14.53;64.42;98783.66;1021892;29;791;-70
2022/02/17 00:51:39;;;;;;;;;;;;;;;14.54;64.27;98796.88;1021976;29;711;-70
2022/02/17 00:52:29;;;;;;;;;;;;;;;14.53;64.45;98797.06;1021894;29;735;-70
2022/02/17 00:53:19;;;;;;;;;;;;;;;14.53;64.14;98810.47;1021970;29;794;-71
2022/02/17 00:54:10;;;;;;;;;;;;;;;14.53;64.60;98797.06;1022000;29;732;-70
2022/02/17 00:55:00;;;;;;;;;;;;;;;14.52;64.17;98808.78;1021872;29;879;-71
2022/02/17 00:55:51;;;;;;;;;;;;;;;14.50;64.33;98805.47;1021992;29;707;-72
2022/02/17 00:56:41;;;;;;;;;;;;;;;14.49;64.28;98799.28;1021825;29;932;-72
2022/02/17 00:57:32;;;;;;;;;;;;;;;14.49;64.30;98777.84;1021895;29;1050;-70
2022/02/17 00:58:22;;;;;;;;;;;;;;;14.47;63.99;98798.59;1022193;29;810;-70
2022/02/17 00:59:12;;;;;;;;;;;;;;;14.46;64.63;98793.41;1022220;29;770;-69
2022/02/17 01:00:03;;;;;;;;;;;;;;;14.46;64.26;98804.13;1021920;29;764;-72
2022/02/17 01:00:53;;;;;;;;;;;;;;;14.47;64.65;98813.84;1021903;29;797;-70
2022/02/17 01:01:46;;;;;;;;;;;;;;;14.47;64.23;98795.09;1021965;29;698;-71
2022/02/17 01:02:37;;;;;;;;;;;;;;;14.44;64.23;98793.59;1021885;29;772;-69
2022/02/17 01:03:27;;;;;;;;;;;;;;;14.45;64.63;98791.75;1021865;29;697;-69
2022/02/17 01:04:17;;;;;;;;;;;;;;;14.44;64.18;98811.50;1017568;29;1029;-70
2022/02/17 01:05:08;;;;;;;;;;;;;;;14.42;64.79;98813.53;1018163;29;828;-68
2022/02/17 01:05:58;;;;;;;;;;;;;;;14.41;64.53;98801.97;1018135;29;718;-69
2022/02/17 01:06:49;;;;;;;;;;;;;;;14.39;64.09;98801.28;1016788;29;736;-68
2022/02/17 01:07:39;;;;;;;;;;;;;;;14.39;64.38;98816.53;1016821;29;720;-69
2022/02/17 01:08:29;;;;;;;;;;;;;;;14.41;64.15;98811.84;1016899;29;701;-69
2022/02/17 01:09:20;;;;;;;;;;;;;;;14.41;64.35;98819.91;1016760;29;937;-69
2022/02/17 01:10:10;;;;;;;;;;;;;;;14.41;64.44;98836.81;1016984;29;782;-70
2022/02/17 01:11:01;;;;;;;;;;;;;;;14.39;64.37;98822.72;1016672;29;789;-69
2022/02/17 01:11:51;;;;;;;;;;;;;;;14.40;63.86;98840.50;1017670;29;2041;-69
2022/02/17 01:12:41;;;;;;;;;;;;;;;14.39;64.16;98827.25;1018183;29;783;-69
2022/02/17 01:13:32;;;;;;;;;;;;;;;14.41;64.24;98838.66;1017829;29;745;-68
2022/02/17 01:14:22;;;;;;;;;;;;;;;14.41;63.63;98841.34;1017878;29;770;-68
2022/02/17 01:15:13;;;;;;;;;;;;;;;14.41;63.66;98830.63;1017862;29;739;-68
2022/02/17 01:16:03;;;;;;;;;;;;;;;14.41;63.63;98852.06;1017811;29;796;-69
2022/02/17 01:16:54;;;;;;;;;;;;;;;14.41;63.85;98844.84;1017715;29;715;-69
2022/02/17 01:17:44;;;;;;;;;;;;;;;14.39;64.27;98846.84;1017801;29;920;-69
2022/02/17 01:18:35;;;;;;;;;;;;;;;14.40;63.67;98863.75;1017622;29;640;-70
2022/02/17 01:19:25;;;;;;;;;;;;;;;14.39;63.72;98879.00;1018119;29;738;-69
2022/02/17 01:20:15;;;;;;;;;;;;;;;14.39;64.29;98878.16;1017633;29;796;-69
2022/02/17 01:21:06;;;;;;;;;;;;;;;14.40;64.06;98886.06;1017237;29;701;-69
2022/02/17 01:21:56;;;;;;;;;;;;;;;14.39;64.03;98878.16;1017732;29;845;-69
2022/02/17 01:22:47;;;;;;;;;;;;;;;14.38;63.50;98871.97;1017762;29;833;-68
2022/02/17 01:23:37;;;;;;;;;;;;;;;14.39;63.66;98883.50;1017851;29;675;-69
2022/02/17 01:24:28;;;;;;;;;;;;;;;14.40;63.47;98875.34;1017786;29;712;-68
2022/02/17 01:25:18;;;;;;;;;;;;;;;14.37;63.54;98889.03;1017861;29;786;-68
2022/02/17 01:26:08;;;;;;;;;;;;;;;14.35;63.22;98891.06;1017834;29;928;-69
2022/02/17 01:26:59;;;;;;;;;;;;;;;14.36;63.75;98883.84;1018833;29;1611;-69
2022/02/17 01:27:51;;;;;;;;;;;;;;;14.36;63.29;98889.22;1021841;29;815;-68
2022/02/17 01:28:42;;;;;;;;;;;;;;;14.36;63.33;98897.25;1021686;29;707;-69
2022/02/17 01:29:32;;;;;;;;;;;;;;;14.36;63.60;98895.41;1017915;29;754;-70
2022/02/17 01:30:23;;;;;;;;;;;;;;;14.37;63.02;98906.97;1018943;29;901;-69
2022/02/17 01:31:15;;;;;;;;;;;;;;;14.35;63.32;98898.25;1018914;28;1954;-70
2022/02/17 01:32:06;;;;;;;;;;;;;;;14.33;63.85;98921.72;1018334;29;656;-68
2022/02/17 01:32:56;;;;;;;;;;;;;;;14.33;63.57;98900.28;1018936;28;727;-68
2022/02/17 01:33:47;;;;;;;;;;;;;;;14.31;63.33;98905.81;1019076;29;760;-68
2022/02/17 01:34:39;;;;;;;;;;;;;;;14.31;63.08;98908.50;1019043;28;778;-68
2022/02/17 01:35:30;;;;;;;;;;;;;;;14.33;63.30;98916.38;1018386;29;747;-69
2022/02/17 01:36:20;;;;;;;;;;;;;;;14.34;63.13;98920.69;1018261;29;863;-68
2022/02/17 01:37:11;;;;;;;;;;;;;;;14.35;63.58;98925.06;1019022;28;727;-68
2022/02/17 01:38:01;;;;;;;;;;;;;;;14.35;63.06;98914.34;1018971;28;794;-68
2022/02/17 01:38:52;;;;;;;;;;;;;;;14.32;63.44;98925.41;1018743;28;762;-68
2022/02/17 01:39:42;;;;;;;;;;;;;;;14.32;63.54;98930.78;1018418;29;706;-68
2022/02/17 01:40:33;;;;;;;;;;;;;;;14.30;63.45;98919.38;1017261;29;793;-69
2022/02/17 01:41:23;;;;;;;;;;;;;;;14.28;63.17;98911.53;1018973;28;711;-68
2022/02/17 01:42:14;;;;;;;;;;;;;;;14.30;63.35;98930.94;1018885;28;665;-68
2022/02/17 01:43:04;;;;;;;;;;;;;;;14.30;63.37;98928.25;1018995;28;650;-67
2022/02/17 01:43:54;;;;;;;;;;;;;;;14.27;63.56;98933.13;1018990;28;792;-68
2022/02/17 01:44:45;;;;;;;;;;;;;;;14.25;62.47;98939.47;1018965;29;785;-71
2022/02/17 01:45:35;;;;;;;;;;;;;;;14.25;62.74;98938.66;1018875;28;690;-71
2022/02/17 01:46:26;;;;;;;;;;;;;;;14.25;62.41;98923.41;1018910;28;774;-71
2022/02/17 01:47:16;;;;;;;;;;;;;;;14.24;62.83;98940.50;1019013;28;703;-71
2022/02/17 01:48:06;;;;;;;;;;;;;;;14.24;62.32;98940.50;1018682;28;647;-71
2022/02/17 01:48:57;;;;;;;;;;;;;;;14.23;63.01;98938.81;1018872;28;931;-72
2022/02/17 01:49:48;;;;;;;;;;;;;;;14.23;62.65;98927.25;1018958;28;704;-71
2022/02/17 01:50:41;;;;;;;;;;;;;;;14.23;62.48;98938.81;1021330;29;1807;-71
2022/02/17 01:51:31;;;;;;;;;;;;;;;14.24;62.82;98929.78;1021074;29;1946;-71
2022/02/17 01:52:23;;;;;;;;;;;;;;;14.24;63.03;98943.16;1021765;29;695;-71
2022/02/17 01:53:14;;;;;;;;;;;;;;;14.24;62.66;98963.75;1021095;29;745;-71
2022/02/17 01:54:05;;;;;;;;;;;;;;;14.25;62.90;98968.13;1021179;29;712;-71
2022/02/17 01:54:55;;;;;;;;;;;;;;;14.24;62.26;98956.56;1015994;29;759;-71
2022/02/17 01:55:46;;;;;;;;;;;;;;;14.24;62.44;98947.69;1012953;29;724;-66
2022/02/17 01:56:36;;;;;;;;;;;;;;;14.23;62.21;98954.88;1016253;29;667;-70
2022/02/17 01:57:26;;;;;;;;;;;;;;;14.22;62.46;98958.56;1021018;29;849;-70
2022/02/17 01:58:17;;;;;;;;;;;;;;;14.22;62.48;98936.31;1021651;29;686;-70
2022/02/17 01:59:07;;;;;;;;;;;;;;;14.21;62.99;98978.31;1021572;29;778;-71
2022/02/17 01:59:58;;;;;;;;;;;;;;;14.19;62.63;98972.28;1020939;29;713;-70
2022/02/17 02:00:48;;;;;;;;;;;;;;;14.17;62.63;98958.22;1021706;29;709;-70
2022/02/17 02:01:39;;;;;;;;;;;;;;;14.18;62.20;98980.50;1021560;29;834;-70
2022/02/17 02:02:29;;;;;;;;;;;;;;;14.14;63.15;98966.63;1021679;29;774;-71
2022/02/17 02:03:19;;;;;;;;;;;;;;;14.13;62.95;98983.72;1021681;29;802;-70
2022/02/17 02:04:10;;;;;;;;;;;;;;;14.14;62.32;99004.13;1021583;29;899;-70
2022/02/17 02:05:00;;;;;;;;;;;;;;;14.15;62.27;98976.31;1021640;29;801;-70
2022/02/17 02:05:51;;;;;;;;;;;;;;;14.16;62.39;98982.50;1021637;29;947;-70
2022/02/17 02:06:41;;;;;;;;;;;;;;;14.16;61.52;98980.66;1021109;29;718;-70
2022/02/17 02:07:32;;;;;;;;;;;;;;;14.16;61.85;98986.03;1021651;29;738;-70
2022/02/17 02:08:22;;;;;;;;;;;;;;;14.18;62.45;98983.19;1015784;29;733;-70
2022/02/17 02:09:16;;;;;;;;;;;;;;;14.18;62.20;98977.81;1017557;29;807;-72
2022/02/17 02:10:06;;;;;;;;;;;;;;;14.19;61.99;98995.56;1021101;29;774;-72
2022/02/17 02:10:57;;;;;;;;;;;;;;;14.18;62.50;98989.38;1021065;29;1878;-71
2022/02/17 02:11:47;;;;;;;;;;;;;;;14.18;61.85;98988.53;1020424;29;822;-72
2022/02/17 02:12:38;;;;;;;;;;;;;;;14.18;61.65;98999.25;1021663;29;711;-72
2022/02/17 02:13:28;;;;;;;;;;;;;;;14.19;62.07;98996.41;1021724;29;763;-71
2022/02/17 02:14:18;;;;;;;;;;;;;;;14.18;62.02;99010.81;1021737;29;988;-72
2022/02/17 02:15:09;;;;;;;;;;;;;;;14.15;62.64;98995.06;1021650;29;750;-72
2022/02/17 02:15:59;;;;;;;;;;;;;;;14.15;62.05;99003.09;1021632;28;839;-70
2022/02/17 02:16:52;;;;;;;;;;;;;;;14.14;62.13;99008.66;1021730;29;691;-67
2022/02/17 02:17:44;;;;;;;;;;;;;;;14.16;62.07;99009.28;1020284;29;720;-69
2022/02/17 02:18:34;;;;;;;;;;;;;;;14.15;61.86;99002.28;1021843;29;723;-69
2022/02/17 02:19:25;;;;;;;;;;;;;;;14.10;61.61;98994.75;1021462;29;1994;-70
2022/02/17 02:20:15;;;;;;;;;;;;;;;14.11;62.16;99014.34;1020390;29;751;-70
2022/02/17 02:21:06;;;;;;;;;;;;;;;14.10;61.53;99032.25;1021662;29;697;-69
2022/02/17 02:21:56;;;;;;;;;;;;;;;14.13;61.47;99018.53;1021540;29;748;-70
2022/02/17 02:22:46;;;;;;;;;;;;;;;14.14;62.13;99019.38;1021647;29;717;-70
2022/02/17 02:23:37;;;;;;;;;;;;;;;14.12;62.21;99011.50;1021693;29;822;-70
2022/02/17 02:24:28;;;;;;;;;;;;;;;14.11;61.71;99020.53;1021523;29;844;-69
2022/02/17 02:25:18;;;;;;;;;;;;;;;14.12;61.85;99022.22;1021621;29;639;-70
2022/02/17 02:26:09;;;;;;;;;;;;;;;14.12;61.33;99027.56;1021538;29;720;-70
2022/02/17 02:26:59;;;;;;;;;;;;;;;14.13;61.98;99039.97;1021383;29;717;-71
2022/02/17 02:27:53;;;;;;;;;;;;;;;14.15;61.86;99039.78;1021634;29;705;-71
2022/02/17 02:28:43;;;;;;;;;;;;;;;14.16;61.48;99044.97;1021447;29;849;-71
2022/02/17 02:29:33;;;;;;;;;;;;;;;14.17;61.97;99054.66;1021729;29;693;-71
2022/02/17 02:30:24;;;;;;;;;;;;;;;14.17;61.43;99017.16;1021489;29;778;-71
2022/02/17 02:31:14;;;;;;;;;;;;;;;14.15;61.46;99048.63;1017550;29;1890;-71
2022/02/17 02:32:05;;;;;;;;;;;;;;;14.14;61.30;99049.66;1017189;29;770;-71
2022/02/17 02:32:55;;;;;;;;;;;;;;;14.14;61.80;99046.16;1019565;29;1980;-71
2022/02/17 02:33:45;;;;;;;;;;;;;;;14.14;61.66;99052.34;1021100;29;769;-71
2022/02/17 02:34:36;;;;;;;;;;;;;;;14.14;61.54;99057.72;1021520;29;845;-72
2022/02/17 02:35:26;;;;;;;;;;;;;;;14.13;61.13;99047.16;1021601;29;703;-72
2022/02/17 02:36:17;;;;;;;;;;;;;;;14.13;61.99;99063.22;1016005;29;780;-72
2022/02/17 02:37:07;;;;;;;;;;;;;;;14.12;61.36;99042.81;1017073;29;1854;-71
2022/02/17 02:37:58;;;;;;;;;;;;;;;14.11;61.80;99057.19;1021568;29;851;-72
2022/02/17 02:38:48;;;;;;;;;;;;;;;14.10;61.95;99045.66;1021584;29;752;-72
2022/02/17 02:39:38;;;;;;;;;;;;;;;14.11;61.33;99057.19;1021624;28;691;-72
2022/02/17 02:40:29;;;;;;;;;;;;;;;14.11;61.86;99047.31;1021646;29;698;-72
2022/02/17 02:41:19;;;;;;;;;;;;;;;14.11;61.20;99050.00;1021585;29;897;-73
2022/02/17 02:42:10;;;;;;;;;;;;;;;14.12;61.15;99049.00;1021622;29;821;-72
2022/02/17 02:43:00;;;;;;;;;;;;;;;14.11;61.33;99058.03;1021626;29;739;-72
2022/02/17 02:43:50;;;;;;;;;;;;;;;14.11;61.10;99062.56;1021616;29;711;-70
2022/02/17 02:44:41;;;;;;;;;;;;;;;14.11;61.97;99063.38;1021524;29;793;-69
2022/02/17 02:45:31;;;;;;;;;;;;;;;14.07;62.28;99075.44;1021498;29;859;-69
2022/02/17 02:46:22;;;;;;;;;;;;;;;14.06;61.28;99060.38;1021486;29;762;-69
2022/02/17 02:47:12;;;;;;;;;;;;;;;14.06;62.27;99056.84;1021469;29;777;-69
2022/02/17 02:48:03;;;;;;;;;;;;;;;14.05;61.88;99063.19;1021514;29;666;-68
2022/02/17 02:48:53;;;;;;;;;;;;;;;14.05;62.02;99058.69;1021399;29;934;-68
2022/02/17 02:49:43;;;;;;;;;;;;;;;14.06;61.42;99075.59;1021554;28;773;-69
2022/02/17 02:50:34;;;;;;;;;;;;;;;14.08;61.01;99089.66;1021352;29;1782;-69
2022/02/17 02:51:24;;;;;;;;;;;;;;;14.08;61.18;99082.47;1020234;29;1883;-69
2022/02/17 02:52:15;;;;;;;;;;;;;;;14.08;61.57;99119.97;1020545;29;740;-70
2022/02/17 02:53:05;;;;;;;;;;;;;;;14.00;61.06;99100.34;1017643;29;792;-70
2022/02/17 02:53:55;;;;;;;;;;;;;;;13.98;60.99;99095.16;1013585;29;1357;-70
2022/02/17 02:54:46;;;;;;;;;;;;;;;13.96;61.58;99115.09;1013126;29;764;-69
2022/02/17 02:55:36;;;;;;;;;;;;;;;13.94;61.35;99083.13;1013114;29;741;-67
2022/02/17 02:56:27;;;;;;;;;;;;;;;13.92;60.88;99090.47;1013256;29;776;-67
2022/02/17 02:57:17;;;;;;;;;;;;;;;13.93;61.26;99110.91;1012987;29;703;-67
2022/02/17 02:58:08;;;;;;;;;;;;;;;13.93;60.55;99096.66;1013104;29;861;-68
2022/02/17 02:58:58;;;;;;;;;;;;;;;13.94;61.52;99101.03;1012997;29;1039;-69
2022/02/17 02:59:48;;;;;;;;;;;;;;;13.95;60.90;99103.53;1013040;29;741;-68
2022/02/17 03:00:39;;;;;;;;;;;;;;;13.96;61.27;99105.22;1013140;29;695;-68
2022/02/17 03:01:29;;;;;;;;;;;;;;;13.98;60.34;99121.94;1013154;29;780;-67
2022/02/17 03:02:20;;;;;;;;;;;;;;;13.99;61.24;99117.41;1013293;29;731;-68
2022/02/17 03:03:10;;;;;;;;;;;;;;;13.98;60.83;99127.28;1013084;29;717;-68
2022/02/17 03:04:01;;;;;;;;;;;;;;;13.99;60.37;99109.38;1013091;29;904;-68
2022/02/17 03:04:52;;;;;;;;;;;;;;;13.98;60.44;99148.72;1013105;29;768;-67
2022/02/17 03:05:43;;;;;;;;;;;;;;;13.97;61.04;99136.34;1013039;29;765;-68
2022/02/17 03:06:34;;;;;;;;;;;;;;;13.97;60.15;99108.72;1013089;29;805;-68
2022/02/17 03:07:24;;;;;;;;;;;;;;;13.96;61.02;99129.31;1013256;29;862;-68
2022/02/17 03:08:15;;;;;;;;;;;;;;;13.96;61.04;99110.56;1013049;29;736;-68
2022/02/17 03:09:05;;;;;;;;;;;;;;;13.92;60.60;99119.94;1013098;29;792;-68
2022/02/17 03:09:56;;;;;;;;;;;;;;;13.92;60.33;99124.44;1013203;29;730;-67
2022/02/17 03:10:46;;;;;;;;;;;;;;;13.92;60.97;99130.63;1013540;29;694;-67
2022/02/17 03:11:37;;;;;;;;;;;;;;;13.91;61.15;99128.97;1014446;29;1919;-68
2022/02/17 03:12:27;;;;;;;;;;;;;;;13.92;60.98;99127.97;1013582;29;860;-69
2022/02/17 03:13:17;;;;;;;;;;;;;;;13.93;60.62;99142.19;1015234;29;831;-68
2022/02/17 03:14:09;;;;;;;;;;;;;;;13.94;60.82;99141.19;1013527;29;750;-68
2022/02/17 03:15:00;;;;;;;;;;;;;;;13.95;60.29;99146.38;1014546;29;783;-68
2022/02/17 03:15:50;;;;;;;;;;;;;;;13.95;60.59;99134.84;1015407;29;754;-68
2022/02/17 03:16:40;;;;;;;;;;;;;;;13.94;60.60;99149.22;1015248;29;821;-67
2022/02/17 03:17:31;;;;;;;;;;;;;;;13.94;60.46;99149.22;1015467;29;790;-68
2022/02/17 03:18:21;;;;;;;;;;;;;;;13.93;61.05;99142.19;1013512;29;722;-68
2022/02/17 03:19:13;;;;;;;;;;;;;;;13.92;60.75;99141.34;1015069;29;1352;-68
2022/02/17 03:20:07;;;;;;;;;;;;;;;13.89;60.73;99134.47;1014080;29;821;-67
2022/02/17 03:20:58;;;;;;;;;;;;;;;13.88;61.18;99142.66;1014605;29;1110;-67
2022/02/17 03:21:48;;;;;;;;;;;;;;;13.88;60.80;99142.66;1014705;29;703;-67
2022/02/17 03:22:38;;;;;;;;;;;;;;;13.88;60.74;99151.53;1015113;29;761;-67
2022/02/17 03:23:29;;;;;;;;;;;;;;;13.89;60.81;99157.75;1015146;29;808;-67
2022/02/17 03:24:19;;;;;;;;;;;;;;;13.89;60.18;99171.13;1015299;29;808;-67
2022/02/17 03:25:10;;;;;;;;;;;;;;;13.88;60.73;99148.03;1015358;29;1818;-67
2022/02/17 03:26:00;;;;;;;;;;;;;;;13.87;60.60;99173.97;1013687;29;718;-68
2022/02/17 03:26:50;;;;;;;;;;;;;;;13.83;60.38;99177.94;1013095;29;770;-73
2022/02/17 03:27:41;;;;;;;;;;;;;;;13.81;59.93;99157.69;1013089;29;717;-70
2022/02/17 03:28:31;;;;;;;;;;;;;;;13.79;59.84;99195.34;1013059;29;688;-70
2022/02/17 03:29:22;;;;;;;;;;;;;;;13.80;60.42;99169.41;1013173;29;739;-70
2022/02/17 03:30:12;;;;;;;;;;;;;;;13.79;60.60;99171.25;1015715;29;1953;-70
2022/02/17 03:31:03;;;;;;;;;;;;;;;13.80;60.52;99177.44;1017534;29;864;-70
2022/02/17 03:31:53;;;;;;;;;;;;;;;13.80;60.51;99167.56;1017409;29;751;-71
2022/02/17 03:32:43;;;;;;;;;;;;;;;13.81;60.14;99177.28;1017504;29;741;-69
2022/02/17 03:33:34;;;;;;;;;;;;;;;13.81;59.58;99149.66;1017505;29;870;-69
2022/02/17 03:34:24;;;;;;;;;;;;;;;13.81;60.33;99179.13;1017530;29;707;-69
2022/02/17 03:35:15;;;;;;;;;;;;;;;13.80;59.80;99185.47;1017466;29;802;-70
2022/02/17 03:36:05;;;;;;;;;;;;;;;13.79;60.08;99176.59;1017473;29;794;-69
2022/02/17 03:36:56;;;;;;;;;;;;;;;13.79;60.20;99192.66;1017523;29;700;-70
2022/02/17 03:37:46;;;;;;;;;;;;;;;13.81;60.25;99173.75;1017534;29;809;-70
2022/02/17 03:38:36;;;;;;;;;;;;;;;13.80;60.33;99188.97;1018216;29;732;-70
2022/02/17 03:39:27;;;;;;;;;;;;;;;13.79;59.84;99202.56;1018120;29;814;-69
2022/02/17 03:40:17;;;;;;;;;;;;;;;13.78;59.86;99204.41;1018106;29;794;-69
2022/02/17 03:41:08;;;;;;;;;;;;;;;13.76;59.02;99202.88;1018101;29;761;-69
2022/02/17 03:41:58;;;;;;;;;;;;;;;13.75;59.80;99218.09;1017056;29;704;-69
2022/02/17 03:42:49;;;;;;;;;;;;;;;13.74;59.90;99200.34;1017324;29;711;-69
2022/02/17 03:43:39;;;;;;;;;;;;;;;13.74;59.85;99207.53;1017010;29;733;-69
2022/02/17 03:44:29;;;;;;;;;;;;;;;13.71;59.25;99211.38;1017201;29;710;-68
2022/02/17 03:45:20;;;;;;;;;;;;;;;13.71;59.50;99222.09;1017256;29;762;-71
2022/02/17 03:46:11;;;;;;;;;;;;;;;13.70;58.89;99199.00;1013545;29;791;-71
2022/02/17 03:47:01;;;;;;;;;;;;;;;13.71;59.87;99205.19;1015249;29;1055;-71
2022/02/17 03:47:52;;;;;;;;;;;;;;;13.72;58.86;99212.22;1018217;29;789;-71
2022/02/17 03:48:42;;;;;;;;;;;;;;;13.72;58.83;99217.56;1017220;29;969;-71
2022/02/17 03:49:32;;;;;;;;;;;;;;;13.73;59.37;99229.97;1017114;29;759;-71
2022/02/17 03:50:23;;;;;;;;;;;;;;;13.72;59.29;99239.81;1017652;29;701;-71
2022/02/17 03:51:13;;;;;;;;;;;;;;;13.73;59.63;99230.78;1016980;29;1911;-71
2022/02/17 03:52:04;;;;;;;;;;;;;;;13.71;58.63;99226.59;1017703;29;894;-71
2022/02/17 03:52:54;;;;;;;;;;;;;;;13.69;59.21;99217.88;1016866;29;691;-71
2022/02/17 03:53:44;;;;;;;;;;;;;;;13.70;58.68;99224.91;1016931;29;1129;-71
2022/02/17 03:54:35;;;;;;;;;;;;;;;13.70;59.11;99230.28;1017209;29;791;-72
2022/02/17 03:55:25;;;;;;;;;;;;;;;13.72;58.58;99228.28;1017062;29;751;-73
2022/02/17 03:56:16;;;;;;;;;;;;;;;13.71;58.75;99223.91;1017195;29;818;-72
2022/02/17 03:57:06;;;;;;;;;;;;;;;13.70;59.46;99235.63;1017037;29;721;-71
2022/02/17 03:57:56;;;;;;;;;;;;;;;13.72;59.10;99249.69;1017048;29;736;-71
2022/02/17 03:59:02;;;;;;;;;;;;;;;13.71;59.40;99237.31;1014481;29;706;-71
2022/02/17 03:59:52;;;;;;;;;;;;;;;13.71;59.36;99245.34;1015073;29;799;-71
2022/02/17 04:00:43;;;;;;;;;;;;;;;13.70;59.10;99255.19;1018662;29;863;-71
2022/02/17 04:01:33;;;;;;;;;;;;;;;13.71;58.92;99258.72;1017043;29;698;-68
2022/02/17 04:02:24;;;;;;;;;;;;;;;13.71;58.80;99258.72;1017078;29;725;-69
2022/02/17 04:03:14;;;;;;;;;;;;;;;13.71;59.05;99246.19;1017012;29;720;-69
2022/02/17 04:04:04;;;;;;;;;;;;;;;13.72;59.10;99242.50;1016940;29;903;-69
2022/02/17 04:04:55;;;;;;;;;;;;;;;13.73;58.52;99246.03;1017170;29;709;-69
2022/02/17 04:05:45;;;;;;;;;;;;;;;13.75;58.32;99260.94;1017012;29;1011;-69
2022/02/17 04:06:36;;;;;;;;;;;;;;;13.76;58.91;99259.94;1017610;29;754;-69
2022/02/17 04:07:26;;;;;;;;;;;;;;;13.75;59.02;99278.81;1016928;29;979;-69
2022/02/17 04:08:16;;;;;;;;;;;;;;;13.74;58.67;99267.28;1013687;29;760;-68
2022/02/17 04:09:07;;;;;;;;;;;;;;;13.73;59.53;99272.78;1015705;29;702;-68
2022/02/17 04:09:57;;;;;;;;;;;;;;;13.69;58.54;99272.25;1018125;29;760;-68
2022/02/17 04:10:48;;;;;;;;;;;;;;;13.68;59.53;99280.44;1018134;29;882;-69
2022/02/17 04:11:38;;;;;;;;;;;;;;;13.67;58.88;99278.75;1018043;29;1918;-68
2022/02/17 04:12:28;;;;;;;;;;;;;;;13.66;58.37;99293.97;1018285;29;692;-68
2022/02/17 04:13:19;;;;;;;;;;;;;;;13.64;58.88;99279.91;1017857;29;644;-69
2022/02/17 04:14:09;;;;;;;;;;;;;;;13.63;59.25;99280.91;1018155;29;692;-68
2022/02/17 04:15:00;;;;;;;;;;;;;;;13.62;58.70;99270.34;1017158;29;744;-68
2022/02/17 04:15:50;;;;;;;;;;;;;;;13.62;58.42;99279.22;1017015;29;809;-67
2022/02/17 04:16:41;;;;;;;;;;;;;;;13.62;59.51;99289.09;1017124;29;753;-67
2022/02/17 04:17:31;;;;;;;;;;;;;;;13.65;59.33;99286.09;1016903;29;694;-67
2022/02/17 04:18:21;;;;;;;;;;;;;;;13.64;58.38;99303.16;1016974;29;822;-68
2022/02/17 04:19:12;;;;;;;;;;;;;;;13.63;59.05;99277.41;1017043;29;958;-69
2022/02/17 04:20:02;;;;;;;;;;;;;;;13.64;59.17;99313.88;1017043;29;883;-68
2022/02/17 04:20:53;;;;;;;;;;;;;;;13.64;59.35;99324.56;1017165;29;701;-68
2022/02/17 04:21:43;;;;;;;;;;;;;;;13.64;58.37;99322.75;1014534;29;722;-68
2022/02/17 04:22:34;;;;;;;;;;;;;;;13.63;58.21;99301.47;1014976;29;703;-68
2022/02/17 04:23:24;;;;;;;;;;;;;;;13.63;58.42;99331.78;1018586;29;819;-66
2022/02/17 04:24:14;;;;;;;;;;;;;;;13.63;58.97;99309.50;1017037;29;696;-67
2022/02/17 04:25:05;;;;;;;;;;;;;;;13.63;58.50;99344.31;1011164;29;971;-67
2022/02/17 04:25:55;;;;;;;;;;;;;;;13.63;58.55;99325.56;1013649;29;759;-66
2022/02/17 04:26:46;;;;;;;;;;;;;;;13.62;58.75;99307.84;1013844;29;715;-66
2022/02/17 04:27:36;;;;;;;;;;;;;;;13.60;58.38;99313.38;1013568;29;850;-68
2022/02/17 04:28:27;;;;;;;;;;;;;;;13.61;58.58;99344.50;1013657;29;726;-67
2022/02/17 04:29:17;;;;;;;;;;;;;;;13.62;58.38;99313.19;1013597;29;701;-67
2022/02/17 04:30:08;;;;;;;;;;;;;;;13.60;59.19;99324.06;1013736;29;738;-67